sensor_id;sensor_type;location;lat;lon;timestamp;temperature;humidity
18779;DHT22;9518;51.720;14.384;2024-02-16T00:00:18;6.40;99.90
18779;DHT22;9518;51.720;14.384;2024-02-16T00:02:47;6.40;99.90
18779;DHT22;9518;51.720;14.384;2024-02-16T00:05:15;6.40;99.90
18779;DHT22;9518;51.720;14.384;2024-02-16T00:07:42;6.40;99.90
18779;DHT22;9518;51.720;14.384;2024-02-16T00:10:11;6.40;99.90
18779;DHT22;9518;51.720;14.384;2024-02-16T00:12:38;6.40;99.90
18779;DHT22;9518;51.720;14.384;2024-02-16T00:15:08;6.30;99.90
18779;DHT22;9518;51.720;14.384;2024-02-16T00:17:36;6.20;99.90
18779;DHT22;9518;51.720;14.384;2024-02-16T00:20:04;6.20;99.90
18779;DHT22;9518;51.720;14.384;2024-02-16T00:22:33;6.20;99.90
18779;DHT22;9518;51.720;14.384;2024-02-16T00:25:00;6.10;99.90
18779;DHT22;9518;51.720;14.384;2024-02-16T00:27:29;6.10;99.90
18779;DHT22;9518;51.720;14.384;2024-02-16T00:29:58;6.20;99.90
18779;DHT22;9518;51.720;14.384;2024-02-16T00:32:28;6.10;99.90
18779;DHT22;9518;51.720;14.384;2024-02-16T00:34:57;6.10;99.90
18779;DHT22;9518;51.720;14.384;2024-02-16T00:37:24;6.20;99.90
18779;DHT22;9518;51.720;14.384;2024-02-16T00:39:52;6.30;99.90
18779;DHT22;9518;51.720;14.384;2024-02-16T00:42:20;6.30;99.90
18779;DHT22;9518;51.720;14.384;2024-02-16T00:44:50;6.30;99.90
18779;DHT22;9518;51.720;14.384;2024-02-16T00:47:17;6.30;99.90
18779;DHT22;9518;51.720;14.384;2024-02-16T00:49:44;6.20;99.90
18779;DHT22;9518;51.720;14.384;2024-02-16T00:52:11;6.20;99.90
18779;DHT22;9518;51.720;14.384;2024-02-16T00:54:38;6.20;99.90
18779;DHT22;9518;51.720;14.384;2024-02-16T00:57:05;6.30;99.90
18779;DHT22;9518;51.720;14.384;2024-02-16T00:59:32;6.30;99.90
18779;DHT22;9518;51.720;14.384;2024-02-16T01:02:01;6.20;99.90
18779;DHT22;9518;51.720;14.384;2024-02-16T01:04:28;6.20;99.90
18779;DHT22;9518;51.720;14.384;2024-02-16T01:06:55;6.20;99.90
18779;DHT22;9518;51.720;14.384;2024-02-16T01:09:22;6.20;99.90
18779;DHT22;9518;51.720;14.384;2024-02-16T01:11:49;6.20;99.90
18779;DHT22;9518;51.720;14.384;2024-02-16T01:14:16;6.20;99.90
18779;DHT22;9518;51.720;14.384;2024-02-16T01:16:43;6.10;99.90
18779;DHT22;9518;51.720;14.384;2024-02-16T01:19:12;6.10;99.90
18779;DHT22;9518;51.720;14.384;2024-02-16T01:21:39;6.10;99.90
18779;DHT22;9518;51.720;14.384;2024-02-16T01:24:06;6.00;99.90
18779;DHT22;9518;51.720;14.384;2024-02-16T01:26:34;6.00;99.90
18779;DHT22;9518;51.720;14.384;2024-02-16T01:29:04;6.00;99.90
18779;DHT22;9518;51.720;14.384;2024-02-16T01:31:31;6.00;99.90
18779;DHT22;9518;51.720;14.384;2024-02-16T01:33:58;5.90;99.90
18779;DHT22;9518;51.720;14.384;2024-02-16T01:36:26;6.00;99.90
18779;DHT22;9518;51.720;14.384;2024-02-16T01:38:53;6.00;99.90
18779;DHT22;9518;51.720;14.384;2024-02-16T01:41:20;6.10;99.90
18779;DHT22;9518;51.720;14.384;2024-02-16T01:43:47;6.10;99.90
18779;DHT22;9518;51.720;14.384;2024-02-16T01:46:15;6.00;99.90
18779;DHT22;9518;51.720;14.384;2024-02-16T01:48:41;6.00;99.90
18779;DHT22;9518;51.720;14.384;2024-02-16T01:51:09;6.00;99.90
18779;DHT22;9518;51.720;14.384;2024-02-16T01:53:39;5.90;99.90
18779;DHT22;9518;51.720;14.384;2024-02-16T01:56:07;5.90;99.90
18779;DHT22;9518;51.720;14.384;2024-02-16T01:58:35;6.00;99.90
18779;DHT22;9518;51.720;14.384;2024-02-16T02:01:03;5.90;99.90
18779;DHT22;9518;51.720;14.384;2024-02-16T02:03:30;5.90;99.90
18779;DHT22;9518;51.720;14.384;2024-02-16T02:05:58;5.80;99.90
18779;DHT22;9518;51.720;14.384;2024-02-16T02:08:25;5.70;99.90
18779;DHT22;9518;51.720;14.384;2024-02-16T02:10:54;5.60;99.90
18779;DHT22;9518;51.720;14.384;2024-02-16T02:13:22;5.60;99.90
18779;DHT22;9518;51.720;14.384;2024-02-16T02:15:49;5.60;99.90
18779;DHT22;9518;51.720;14.384;2024-02-16T02:18:16;5.60;99.90
18779;DHT22;9518;51.720;14.384;2024-02-16T02:20:43;5.60;99.90
18779;DHT22;9518;51.720;14.384;2024-02-16T02:23:12;5.60;99.90
18779;DHT22;9518;51.720;14.384;2024-02-16T02:25:39;5.60;99.90
18779;DHT22;9518;51.720;14.384;2024-02-16T02:28:07;5.50;99.90
18779;DHT22;9518;51.720;14.384;2024-02-16T02:30:34;5.50;99.90
18779;DHT22;9518;51.720;14.384;2024-02-16T02:33:01;5.50;99.90
18779;DHT22;9518;51.720;14.384;2024-02-16T02:35:28;5.40;99.90
18779;DHT22;9518;51.720;14.384;2024-02-16T02:37:55;5.30;99.90
18779;DHT22;9518;51.720;14.384;2024-02-16T02:40:23;5.20;99.90
18779;DHT22;9518;51.720;14.384;2024-02-16T02:42:51;5.20;99.90
18779;DHT22;9518;51.720;14.384;2024-02-16T02:45:19;5.30;99.90
18779;DHT22;9518;51.720;14.384;2024-02-16T02:47:46;5.30;99.90
18779;DHT22;9518;51.720;14.384;2024-02-16T02:50:13;5.20;99.90
18779;DHT22;9518;51.720;14.384;2024-02-16T02:52:40;5.20;99.90
18779;DHT22;9518;51.720;14.384;2024-02-16T02:55:08;5.20;99.90
18779;DHT22;9518;51.720;14.384;2024-02-16T02:57:36;5.10;99.90
18779;DHT22;9518;51.720;14.384;2024-02-16T03:00:05;5.10;99.90
18779;DHT22;9518;51.720;14.384;2024-02-16T03:02:36;5.00;99.90
18779;DHT22;9518;51.720;14.384;2024-02-16T03:05:09;5.00;99.90
18779;DHT22;9518;51.720;14.384;2024-02-16T03:07:36;4.90;99.90
18779;DHT22;9518;51.720;14.384;2024-02-16T03:10:05;4.90;99.90
18779;DHT22;9518;51.720;14.384;2024-02-16T03:12:36;4.90;99.90
18779;DHT22;9518;51.720;14.384;2024-02-16T03:15:04;4.80;99.90
18779;DHT22;9518;51.720;14.384;2024-02-16T03:17:31;4.80;99.90
18779;DHT22;9518;51.720;14.384;2024-02-16T03:19:58;4.80;99.90
18779;DHT22;9518;51.720;14.384;2024-02-16T03:22:25;5.00;99.90
18779;DHT22;9518;51.720;14.384;2024-02-16T03:24:52;5.00;99.90
18779;DHT22;9518;51.720;14.384;2024-02-16T03:27:19;5.10;99.90
18779;DHT22;9518;51.720;14.384;2024-02-16T03:29:48;5.10;99.90
18779;DHT22;9518;51.720;14.384;2024-02-16T03:32:16;5.30;99.90
18779;DHT22;9518;51.720;14.384;2024-02-16T03:34:44;5.30;99.90
18779;DHT22;9518;51.720;14.384;2024-02-16T03:37:11;5.40;99.90
18779;DHT22;9518;51.720;14.384;2024-02-16T03:39:38;5.40;99.90
18779;DHT22;9518;51.720;14.384;2024-02-16T03:42:05;5.50;99.90
18779;DHT22;9518;51.720;14.384;2024-02-16T03:44:32;5.60;99.90
18779;DHT22;9518;51.720;14.384;2024-02-16T03:47:01;5.60;99.90
18779;DHT22;9518;51.720;14.384;2024-02-16T03:49:29;5.70;99.90
18779;DHT22;9518;51.720;14.384;2024-02-16T03:51:56;6.00;99.90
18779;DHT22;9518;51.720;14.384;2024-02-16T03:54:23;6.00;99.90
18779;DHT22;9518;51.720;14.384;2024-02-16T03:56:53;6.10;99.90
18779;DHT22;9518;51.720;14.384;2024-02-16T03:59:20;6.10;99.90
18779;DHT22;9518;51.720;14.384;2024-02-16T04:01:48;6.10;99.90
18779;DHT22;9518;51.720;14.384;2024-02-16T04:04:16;6.10;99.90
18779;DHT22;9518;51.720;14.384;2024-02-16T04:06:43;6.20;99.90
18779;DHT22;9518;51.720;14.384;2024-02-16T04:09:10;6.30;99.90
18779;DHT22;9518;51.720;14.384;2024-02-16T04:11:37;6.30;99.90
18779;DHT22;9518;51.720;14.384;2024-02-16T04:14:04;6.50;99.90
18779;DHT22;9518;51.720;14.384;2024-02-16T04:16:31;6.50;99.90
18779;DHT22;9518;51.720;14.384;2024-02-16T04:18:58;6.60;99.90
18779;DHT22;9518;51.720;14.384;2024-02-16T04:21:27;6.60;99.90
18779;DHT22;9518;51.720;14.384;2024-02-16T04:23:54;6.60;99.90
18779;DHT22;9518;51.720;14.384;2024-02-16T04:26:22;6.60;99.90
18779;DHT22;9518;51.720;14.384;2024-02-16T04:28:49;6.60;99.90
18779;DHT22;9518;51.720;14.384;2024-02-16T04:31:16;6.60;99.90
18779;DHT22;9518;51.720;14.384;2024-02-16T04:33:43;6.60;99.90
18779;DHT22;9518;51.720;14.384;2024-02-16T04:36:10;6.60;99.90
18779;DHT22;9518;51.720;14.384;2024-02-16T04:38:39;6.60;99.90
18779;DHT22;9518;51.720;14.384;2024-02-16T04:41:06;6.70;99.90
18779;DHT22;9518;51.720;14.384;2024-02-16T04:43:33;6.60;99.90
18779;DHT22;9518;51.720;14.384;2024-02-16T04:46:00;6.50;99.90
18779;DHT22;9518;51.720;14.384;2024-02-16T04:48:30;6.40;99.90
18779;DHT22;9518;51.720;14.384;2024-02-16T04:50:57;6.40;99.90
18779;DHT22;9518;51.720;14.384;2024-02-16T04:53:25;6.40;99.90
18779;DHT22;9518;51.720;14.384;2024-02-16T04:55:53;6.40;99.90
18779;DHT22;9518;51.720;14.384;2024-02-16T04:58:21;6.40;99.90
18779;DHT22;9518;51.720;14.384;2024-02-16T05:00:48;6.30;99.90
18779;DHT22;9518;51.720;14.384;2024-02-16T05:03:15;6.20;99.90
18779;DHT22;9518;51.720;14.384;2024-02-16T05:05:44;6.20;99.90
18779;DHT22;9518;51.720;14.384;2024-02-16T05:08:11;6.30;99.90
18779;DHT22;9518;51.720;14.384;2024-02-16T05:10:39;6.40;99.90
18779;DHT22;9518;51.720;14.384;2024-02-16T05:13:07;6.60;99.90
18779;DHT22;9518;51.720;14.384;2024-02-16T05:15:36;6.60;99.90
18779;DHT22;9518;51.720;14.384;2024-02-16T05:18:06;6.60;99.90
18779;DHT22;9518;51.720;14.384;2024-02-16T05:20:33;6.40;99.90
18779;DHT22;9518;51.720;14.384;2024-02-16T05:23:01;6.30;99.90
18779;DHT22;9518;51.720;14.384;2024-02-16T05:25:28;6.20;99.90
18779;DHT22;9518;51.720;14.384;2024-02-16T05:27:55;6.10;99.90
18779;DHT22;9518;51.720;14.384;2024-02-16T05:30:24;6.10;99.90
18779;DHT22;9518;51.720;14.384;2024-02-16T05:32:51;6.10;99.90
18779;DHT22;9518;51.720;14.384;2024-02-16T05:35:18;6.00;99.90
18779;DHT22;9518;51.720;14.384;2024-02-16T05:37:48;6.10;99.90
18779;DHT22;9518;51.720;14.384;2024-02-16T05:40:17;6.10;99.90
18779;DHT22;9518;51.720;14.384;2024-02-16T05:42:50;6.10;99.90
18779;DHT22;9518;51.720;14.384;2024-02-16T05:45:18;6.20;99.90
18779;DHT22;9518;51.720;14.384;2024-02-16T05:47:47;6.20;99.90
18779;DHT22;9518;51.720;14.384;2024-02-16T05:50:14;6.20;99.90
18779;DHT22;9518;51.720;14.384;2024-02-16T05:52:41;6.20;99.90
18779;DHT22;9518;51.720;14.384;2024-02-16T05:55:09;6.10;99.90
18779;DHT22;9518;51.720;14.384;2024-02-16T05:57:37;6.20;99.90
18779;DHT22;9518;51.720;14.384;2024-02-16T06:00:06;6.30;99.90
18779;DHT22;9518;51.720;14.384;2024-02-16T06:02:35;6.40;99.90
18779;DHT22;9518;51.720;14.384;2024-02-16T06:05:09;6.40;99.90
18779;DHT22;9518;51.720;14.384;2024-02-16T06:07:36;6.50;99.90
18779;DHT22;9518;51.720;14.384;2024-02-16T06:10:08;6.50;99.90
18779;DHT22;9518;51.720;14.384;2024-02-16T06:12:36;6.50;99.90
18779;DHT22;9518;51.720;14.384;2024-02-16T06:15:04;6.50;99.90
18779;DHT22;9518;51.720;14.384;2024-02-16T06:17:32;6.40;99.90
18779;DHT22;9518;51.720;14.384;2024-02-16T06:19:59;6.30;99.90
18779;DHT22;9518;51.720;14.384;2024-02-16T06:22:32;6.30;99.90
18779;DHT22;9518;51.720;14.384;2024-02-16T06:24:59;6.20;99.90
18779;DHT22;9518;51.720;14.384;2024-02-16T06:27:27;6.20;99.90
18779;DHT22;9518;51.720;14.384;2024-02-16T06:29:55;6.20;99.90
18779;DHT22;9518;51.720;14.384;2024-02-16T06:32:22;6.20;99.90
18779;DHT22;9518;51.720;14.384;2024-02-16T06:34:49;6.20;99.90
18779;DHT22;9518;51.720;14.384;2024-02-16T06:37:18;6.30;99.90
18779;DHT22;9518;51.720;14.384;2024-02-16T06:39:46;6.40;99.90
18779;DHT22;9518;51.720;14.384;2024-02-16T06:42:14;6.30;99.90
18779;DHT22;9518;51.720;14.384;2024-02-16T06:44:41;6.30;99.90
18779;DHT22;9518;51.720;14.384;2024-02-16T06:47:08;6.20;99.90
18779;DHT22;9518;51.720;14.384;2024-02-16T06:49:37;6.30;99.90
18779;DHT22;9518;51.720;14.384;2024-02-16T06:52:04;6.40;99.90
18779;DHT22;9518;51.720;14.384;2024-02-16T06:54:31;6.50;99.90
18779;DHT22;9518;51.720;14.384;2024-02-16T06:57:05;6.60;99.90
18779;DHT22;9518;51.720;14.384;2024-02-16T06:59:32;6.40;99.90
18779;DHT22;9518;51.720;14.384;2024-02-16T07:02:00;6.40;99.90
18779;DHT22;9518;51.720;14.384;2024-02-16T07:04:27;6.20;99.90
18779;DHT22;9518;51.720;14.384;2024-02-16T07:06:54;6.20;99.90
18779;DHT22;9518;51.720;14.384;2024-02-16T07:09:22;6.40;99.90
18779;DHT22;9518;51.720;14.384;2024-02-16T07:11:49;6.40;99.90
18779;DHT22;9518;51.720;14.384;2024-02-16T07:14:19;6.50;99.90
18779;DHT22;9518;51.720;14.384;2024-02-16T07:16:47;6.60;99.90
18779;DHT22;9518;51.720;14.384;2024-02-16T07:19:14;6.70;99.90
18779;DHT22;9518;51.720;14.384;2024-02-16T07:21:41;6.80;99.90
18779;DHT22;9518;51.720;14.384;2024-02-16T07:24:10;6.80;99.90
18779;DHT22;9518;51.720;14.384;2024-02-16T07:26:37;7.00;99.90
18779;DHT22;9518;51.720;14.384;2024-02-16T07:29:03;7.10;99.90
18779;DHT22;9518;51.720;14.384;2024-02-16T07:31:34;7.30;99.90
18779;DHT22;9518;51.720;14.384;2024-02-16T07:34:02;7.40;99.90
18779;DHT22;9518;51.720;14.384;2024-02-16T07:36:29;7.60;99.90
18779;DHT22;9518;51.720;14.384;2024-02-16T07:38:58;7.70;99.90
18779;DHT22;9518;51.720;14.384;2024-02-16T07:41:25;7.90;99.90
18779;DHT22;9518;51.720;14.384;2024-02-16T07:43:53;8.00;99.90
18779;DHT22;9518;51.720;14.384;2024-02-16T07:46:20;8.10;99.90
18779;DHT22;9518;51.720;14.384;2024-02-16T07:48:50;8.30;99.90
18779;DHT22;9518;51.720;14.384;2024-02-16T07:51:20;8.50;99.90
18779;DHT22;9518;51.720;14.384;2024-02-16T07:53:48;8.60;99.90
18779;DHT22;9518;51.720;14.384;2024-02-16T07:56:16;8.70;99.90
18779;DHT22;9518;51.720;14.384;2024-02-16T07:58:43;8.80;99.90
18779;DHT22;9518;51.720;14.384;2024-02-16T08:01:12;8.90;99.90
18779;DHT22;9518;51.720;14.384;2024-02-16T08:03:43;8.90;99.90
18779;DHT22;9518;51.720;14.384;2024-02-16T08:06:11;9.10;99.90
18779;DHT22;9518;51.720;14.384;2024-02-16T08:08:39;9.10;99.90
18779;DHT22;9518;51.720;14.384;2024-02-16T08:11:06;9.30;99.90
18779;DHT22;9518;51.720;14.384;2024-02-16T08:13:33;9.40;99.90
18779;DHT22;9518;51.720;14.384;2024-02-16T08:16:00;9.50;99.90
18779;DHT22;9518;51.720;14.384;2024-02-16T08:18:32;9.70;99.90
18779;DHT22;9518;51.720;14.384;2024-02-16T08:20:59;9.70;99.90
18779;DHT22;9518;51.720;14.384;2024-02-16T08:23:27;9.80;99.90
18779;DHT22;9518;51.720;14.384;2024-02-16T08:25:56;9.90;99.90
18779;DHT22;9518;51.720;14.384;2024-02-16T08:28:24;10.00;99.90
18779;DHT22;9518;51.720;14.384;2024-02-16T08:30:51;10.00;99.90
18779;DHT22;9518;51.720;14.384;2024-02-16T08:33:22;10.00;99.90
18779;DHT22;9518;51.720;14.384;2024-02-16T08:35:49;10.00;99.90
18779;DHT22;9518;51.720;14.384;2024-02-16T08:38:17;10.00;99.90
18779;DHT22;9518;51.720;14.384;2024-02-16T08:40:46;10.10;99.90
18779;DHT22;9518;51.720;14.384;2024-02-16T08:43:13;10.20;99.90
18779;DHT22;9518;51.720;14.384;2024-02-16T08:45:41;10.40;99.90
18779;DHT22;9518;51.720;14.384;2024-02-16T08:48:09;10.60;99.90
18779;DHT22;9518;51.720;14.384;2024-02-16T08:50:36;10.70;99.90
18779;DHT22;9518;51.720;14.384;2024-02-16T08:53:03;10.80;99.90
18779;DHT22;9518;51.720;14.384;2024-02-16T08:55:30;10.80;99.90
18779;DHT22;9518;51.720;14.384;2024-02-16T08:57:59;10.80;99.90
18779;DHT22;9518;51.720;14.384;2024-02-16T09:00:28;10.90;99.90
18779;DHT22;9518;51.720;14.384;2024-02-16T09:02:55;11.00;99.90
18779;DHT22;9518;51.720;14.384;2024-02-16T09:05:23;11.10;99.90
18779;DHT22;9518;51.720;14.384;2024-02-16T09:07:50;11.20;99.90
18779;DHT22;9518;51.720;14.384;2024-02-16T09:10:17;11.40;99.90
18779;DHT22;9518;51.720;14.384;2024-02-16T09:12:45;11.50;99.90
18779;DHT22;9518;51.720;14.384;2024-02-16T09:15:13;11.70;99.90
18779;DHT22;9518;51.720;14.384;2024-02-16T09:17:42;11.90;99.90
18779;DHT22;9518;51.720;14.384;2024-02-16T09:20:10;11.90;99.90
18779;DHT22;9518;51.720;14.384;2024-02-16T09:22:40;12.00;99.90
18779;DHT22;9518;51.720;14.384;2024-02-16T09:25:07;12.00;99.90
18779;DHT22;9518;51.720;14.384;2024-02-16T09:27:34;12.10;99.90
18779;DHT22;9518;51.720;14.384;2024-02-16T09:30:07;12.10;99.90
18779;DHT22;9518;51.720;14.384;2024-02-16T09:32:39;12.40;99.90
18779;DHT22;9518;51.720;14.384;2024-02-16T09:35:06;12.50;99.90
18779;DHT22;9518;51.720;14.384;2024-02-16T09:37:35;12.50;99.90
18779;DHT22;9518;51.720;14.384;2024-02-16T09:40:04;12.50;99.90
18779;DHT22;9518;51.720;14.384;2024-02-16T09:42:33;12.70;99.90
18779;DHT22;9518;51.720;14.384;2024-02-16T09:45:07;12.80;99.90
18779;DHT22;9518;51.720;14.384;2024-02-16T09:47:39;12.90;99.90
18779;DHT22;9518;51.720;14.384;2024-02-16T09:50:09;13.10;99.90
18779;DHT22;9518;51.720;14.384;2024-02-16T09:52:36;13.20;99.90
18779;DHT22;9518;51.720;14.384;2024-02-16T09:55:05;13.30;99.90
18779;DHT22;9518;51.720;14.384;2024-02-16T09:57:34;13.50;99.90
18779;DHT22;9518;51.720;14.384;2024-02-16T10:00:01;13.60;99.90
18779;DHT22;9518;51.720;14.384;2024-02-16T10:02:40;13.60;99.90
18779;DHT22;9518;51.720;14.384;2024-02-16T10:05:13;13.60;99.90
18779;DHT22;9518;51.720;14.384;2024-02-16T10:07:42;13.50;99.90
18779;DHT22;9518;51.720;14.384;2024-02-16T10:10:20;13.40;99.90
18779;DHT22;9518;51.720;14.384;2024-02-16T10:12:48;13.40;99.90
18779;DHT22;9518;51.720;14.384;2024-02-16T10:15:19;13.30;99.90
18779;DHT22;9518;51.720;14.384;2024-02-16T10:17:59;13.50;99.90
18779;DHT22;9518;51.720;14.384;2024-02-16T10:20:26;13.60;99.90
18779;DHT22;9518;51.720;14.384;2024-02-16T10:23:04;13.80;99.90
18779;DHT22;9518;51.720;14.384;2024-02-16T10:25:32;14.00;99.90
18779;DHT22;9518;51.720;14.384;2024-02-16T10:28:03;14.00;99.10
18779;DHT22;9518;51.720;14.384;2024-02-16T10:30:34;13.90;99.90
18779;DHT22;9518;51.720;14.384;2024-02-16T10:33:03;14.00;99.10
18779;DHT22;9518;51.720;14.384;2024-02-16T10:35:31;14.00;99.90
18779;DHT22;9518;51.720;14.384;2024-02-16T10:38:01;13.90;98.30
18779;DHT22;9518;51.720;14.384;2024-02-16T10:40:32;13.90;99.90
18779;DHT22;9518;51.720;14.384;2024-02-16T10:43:03;13.90;99.90
18779;DHT22;9518;51.720;14.384;2024-02-16T10:45:33;13.90;99.60
18779;DHT22;9518;51.720;14.384;2024-02-16T10:48:03;13.70;98.60
18779;DHT22;9518;51.720;14.384;2024-02-16T10:50:31;13.70;98.50
18779;DHT22;9518;51.720;14.384;2024-02-16T10:53:03;13.60;99.90
18779;DHT22;9518;51.720;14.384;2024-02-16T10:55:31;13.60;99.90
18779;DHT22;9518;51.720;14.384;2024-02-16T10:58:00;13.60;99.90
18779;DHT22;9518;51.720;14.384;2024-02-16T11:00:27;13.50;99.90
18779;DHT22;9518;51.720;14.384;2024-02-16T11:02:57;13.40;99.90
18779;DHT22;9518;51.720;14.384;2024-02-16T11:05:39;13.40;99.90
18779;DHT22;9518;51.720;14.384;2024-02-16T11:08:12;13.40;99.90
18779;DHT22;9518;51.720;14.384;2024-02-16T11:10:41;13.40;99.90
18779;DHT22;9518;51.720;14.384;2024-02-16T11:13:22;13.40;99.90
18779;DHT22;9518;51.720;14.384;2024-02-16T11:15:56;13.20;99.90
18779;DHT22;9518;51.720;14.384;2024-02-16T11:18:24;13.10;99.90
18779;DHT22;9518;51.720;14.384;2024-02-16T11:20:53;13.20;99.90
18779;DHT22;9518;51.720;14.384;2024-02-16T11:23:26;13.20;99.90
18779;DHT22;9518;51.720;14.384;2024-02-16T11:25:54;13.20;99.90
18779;DHT22;9518;51.720;14.384;2024-02-16T11:28:26;13.30;99.90
18779;DHT22;9518;51.720;14.384;2024-02-16T11:30:54;13.30;99.90
18779;DHT22;9518;51.720;14.384;2024-02-16T11:33:21;13.50;99.90
18779;DHT22;9518;51.720;14.384;2024-02-16T11:35:55;13.70;99.10
18779;DHT22;9518;51.720;14.384;2024-02-16T11:38:23;13.80;99.20
18779;DHT22;9518;51.720;14.384;2024-02-16T11:40:55;14.00;99.90
18779;DHT22;9518;51.720;14.384;2024-02-16T11:43:23;14.30;99.80
18779;DHT22;9518;51.720;14.384;2024-02-16T11:45:50;14.60;98.10
18779;DHT22;9518;51.720;14.384;2024-02-16T11:48:22;14.60;96.90
18779;DHT22;9518;51.720;14.384;2024-02-16T11:50:55;14.90;96.90
18779;DHT22;9518;51.720;14.384;2024-02-16T11:53:26;15.00;95.50
18779;DHT22;9518;51.720;14.384;2024-02-16T11:55:56;15.10;95.60
18779;DHT22;9518;51.720;14.384;2024-02-16T11:58:23;15.00;95.30
18779;DHT22;9518;51.720;14.384;2024-02-16T12:00:51;15.00;95.10
18779;DHT22;9518;51.720;14.384;2024-02-16T12:03:19;15.00;94.00
18779;DHT22;9518;51.720;14.384;2024-02-16T12:05:51;15.00;94.40
18779;DHT22;9518;51.720;14.384;2024-02-16T12:08:18;15.00;96.40
18779;DHT22;9518;51.720;14.384;2024-02-16T12:10:48;14.90;94.80
18779;DHT22;9518;51.720;14.384;2024-02-16T12:13:16;14.90;95.10
18779;DHT22;9518;51.720;14.384;2024-02-16T12:15:44;14.70;94.80
18779;DHT22;9518;51.720;14.384;2024-02-16T12:18:19;14.70;95.90
18779;DHT22;9518;51.720;14.384;2024-02-16T12:20:58;14.80;95.40
18779;DHT22;9518;51.720;14.384;2024-02-16T12:23:25;14.90;94.90
18779;DHT22;9518;51.720;14.384;2024-02-16T12:25:53;14.90;95.40
18779;DHT22;9518;51.720;14.384;2024-02-16T12:28:24;14.80;93.00
18779;DHT22;9518;51.720;14.384;2024-02-16T12:30:53;14.80;94.90
18779;DHT22;9518;51.720;14.384;2024-02-16T12:33:21;15.00;93.80
18779;DHT22;9518;51.720;14.384;2024-02-16T12:35:50;14.90;94.60
18779;DHT22;9518;51.720;14.384;2024-02-16T12:38:17;14.90;93.80
18779;DHT22;9518;51.720;14.384;2024-02-16T12:40:45;14.90;94.40
18779;DHT22;9518;51.720;14.384;2024-02-16T12:43:14;15.10;94.90
18779;DHT22;9518;51.720;14.384;2024-02-16T12:45:42;15.20;94.40
18779;DHT22;9518;51.720;14.384;2024-02-16T12:48:09;15.30;93.70
18779;DHT22;9518;51.720;14.384;2024-02-16T12:50:38;15.30;94.10
18779;DHT22;9518;51.720;14.384;2024-02-16T12:53:07;15.40;94.20
18779;DHT22;9518;51.720;14.384;2024-02-16T12:55:34;15.40;93.80
18779;DHT22;9518;51.720;14.384;2024-02-16T12:58:01;15.50;93.70
18779;DHT22;9518;51.720;14.384;2024-02-16T13:00:30;15.70;94.10
18779;DHT22;9518;51.720;14.384;2024-02-16T13:02:57;15.90;93.40
18779;DHT22;9518;51.720;14.384;2024-02-16T13:05:24;16.10;92.50
18779;DHT22;9518;51.720;14.384;2024-02-16T13:07:51;16.40;91.20
18779;DHT22;9518;51.720;14.384;2024-02-16T13:10:18;16.50;91.20
18779;DHT22;9518;51.720;14.384;2024-02-16T13:12:45;16.50;89.30
18779;DHT22;9518;51.720;14.384;2024-02-16T13:15:12;16.50;90.00
18779;DHT22;9518;51.720;14.384;2024-02-16T13:17:41;16.60;90.10
18779;DHT22;9518;51.720;14.384;2024-02-16T13:20:10;16.50;89.80
18779;DHT22;9518;51.720;14.384;2024-02-16T13:22:37;16.60;87.80
18779;DHT22;9518;51.720;14.384;2024-02-16T13:25:03;16.70;88.10
18779;DHT22;9518;51.720;14.384;2024-02-16T13:27:31;16.60;89.40
18779;DHT22;9518;51.720;14.384;2024-02-16T13:30:01;16.60;89.20
18779;DHT22;9518;51.720;14.384;2024-02-16T13:32:32;16.50;87.30
18779;DHT22;9518;51.720;14.384;2024-02-16T13:35:01;16.40;86.90
18779;DHT22;9518;51.720;14.384;2024-02-16T13:37:29;16.40;88.50
18779;DHT22;9518;51.720;14.384;2024-02-16T13:39:56;16.50;86.60
18779;DHT22;9518;51.720;14.384;2024-02-16T13:42:26;16.50;88.30
18779;DHT22;9518;51.720;14.384;2024-02-16T13:44:54;16.50;83.90
18779;DHT22;9518;51.720;14.384;2024-02-16T13:47:22;16.50;87.60
18779;DHT22;9518;51.720;14.384;2024-02-16T13:49:50;16.40;85.50
18779;DHT22;9518;51.720;14.384;2024-02-16T13:52:19;16.30;83.80
18779;DHT22;9518;51.720;14.384;2024-02-16T13:54:47;16.30;87.40
18779;DHT22;9518;51.720;14.384;2024-02-16T13:57:14;16.10;87.70
18779;DHT22;9518;51.720;14.384;2024-02-16T13:59:42;15.80;86.60
18779;DHT22;9518;51.720;14.384;2024-02-16T14:02:09;15.50;86.70
18779;DHT22;9518;51.720;14.384;2024-02-16T14:04:37;15.30;86.90
18779;DHT22;9518;51.720;14.384;2024-02-16T14:07:05;15.20;90.20
18779;DHT22;9518;51.720;14.384;2024-02-16T14:09:33;15.20;89.20
18779;DHT22;9518;51.720;14.384;2024-02-16T14:12:00;15.10;87.90
18779;DHT22;9518;51.720;14.384;2024-02-16T14:14:27;15.00;88.60
18779;DHT22;9518;51.720;14.384;2024-02-16T14:16:55;15.00;90.20
18779;DHT22;9518;51.720;14.384;2024-02-16T14:19:23;14.90;90.40
18779;DHT22;9518;51.720;14.384;2024-02-16T14:21:51;14.80;91.30
18779;DHT22;9518;51.720;14.384;2024-02-16T14:24:18;14.70;89.40
18779;DHT22;9518;51.720;14.384;2024-02-16T14:26:47;14.70;90.70
18779;DHT22;9518;51.720;14.384;2024-02-16T14:29:16;14.70;90.50
18779;DHT22;9518;51.720;14.384;2024-02-16T14:31:43;14.70;90.40
18779;DHT22;9518;51.720;14.384;2024-02-16T14:34:10;14.70;91.50
18779;DHT22;9518;51.720;14.384;2024-02-16T14:36:38;14.70;91.50
18779;DHT22;9518;51.720;14.384;2024-02-16T14:39:05;14.60;89.50
18779;DHT22;9518;51.720;14.384;2024-02-16T14:41:32;14.50;90.30
18779;DHT22;9518;51.720;14.384;2024-02-16T14:44:00;14.40;90.20
18779;DHT22;9518;51.720;14.384;2024-02-16T14:46:28;14.40;90.60
18779;DHT22;9518;51.720;14.384;2024-02-16T14:48:57;14.40;91.00
18779;DHT22;9518;51.720;14.384;2024-02-16T14:51:24;14.30;90.40
18779;DHT22;9518;51.720;14.384;2024-02-16T14:53:51;14.30;90.90
18779;DHT22;9518;51.720;14.384;2024-02-16T14:56:21;14.20;90.60
18779;DHT22;9518;51.720;14.384;2024-02-16T14:58:49;14.20;91.30
18779;DHT22;9518;51.720;14.384;2024-02-16T15:01:18;14.10;91.30
18779;DHT22;9518;51.720;14.384;2024-02-16T15:03:45;14.00;92.10
18779;DHT22;9518;51.720;14.384;2024-02-16T15:06:12;13.90;92.40
18779;DHT22;9518;51.720;14.384;2024-02-16T15:08:39;13.90;92.70
18779;DHT22;9518;51.720;14.384;2024-02-16T15:11:06;13.80;93.30
18779;DHT22;9518;51.720;14.384;2024-02-16T15:13:34;13.80;94.20
18779;DHT22;9518;51.720;14.384;2024-02-16T15:16:03;13.70;94.40
18779;DHT22;9518;51.720;14.384;2024-02-16T15:18:32;13.70;94.70
18779;DHT22;9518;51.720;14.384;2024-02-16T15:21:00;13.70;94.70
18779;DHT22;9518;51.720;14.384;2024-02-16T15:23:27;13.70;95.10
18779;DHT22;9518;51.720;14.384;2024-02-16T15:25:55;13.70;95.00
18779;DHT22;9518;51.720;14.384;2024-02-16T15:28:25;13.60;94.80
18779;DHT22;9518;51.720;14.384;2024-02-16T15:30:52;13.60;94.20
18779;DHT22;9518;51.720;14.384;2024-02-16T15:33:19;13.70;94.20
18779;DHT22;9518;51.720;14.384;2024-02-16T15:35:48;13.70;94.80
18779;DHT22;9518;51.720;14.384;2024-02-16T15:38:15;13.60;94.30
18779;DHT22;9518;51.720;14.384;2024-02-16T15:40:42;13.60;94.40
18779;DHT22;9518;51.720;14.384;2024-02-16T15:43:09;13.50;94.50
18779;DHT22;9518;51.720;14.384;2024-02-16T15:45:37;13.50;94.10